sensor_id;sensor_type;location;lat;lon;timestamp;pressure;altitude;pressure_sealevel;temperature;humidity
34081;BME280;20358;50.272;19.026;2023-06-22T00:03:03;98376.66;;;19.52;62.75
34081;BME280;20358;50.272;19.026;2023-06-22T00:06:12;98400.56;;;19.62;62.94
34081;BME280;20358;50.272;19.026;2023-06-22T00:09:20;98338.53;;;19.26;63.19
34081;BME280;20358;50.272;19.026;2023-06-22T00:12:27;98389.88;;;19.54;62.70
34081;BME280;20358;50.272;19.026;2023-06-22T00:15:40;98376.69;;;19.44;62.84
34081;BME280;20358;50.272;19.026;2023-06-22T00:18:48;98402.28;;;19.55;63.54
34081;BME280;20358;50.272;19.026;2023-06-22T00:21:58;98413.31;;;19.52;63.01
34081;BME280;20358;50.272;19.026;2023-06-22T00:25:07;98346.75;;;19.09;63.32
34081;BME280;20358;50.272;19.026;2023-06-22T00:28:18;98409.00;;;19.43;63.47
34081;BME280;20358;50.272;19.026;2023-06-22T00:31:26;98411.34;;;19.38;63.98
34081;BME280;20358;50.272;19.026;2023-06-22T00:34:34;98415.69;;;19.31;63.86
34081;BME280;20358;50.272;19.026;2023-06-22T00:37:45;98411.69;;;19.27;63.98
34081;BME280;20358;50.272;19.026;2023-06-22T00:40:53;98416.69;;;19.22;64.02
34081;BME280;20358;50.272;19.026;2023-06-22T00:44:00;98371.47;;;18.86;63.83
34081;BME280;20358;50.272;19.026;2023-06-22T00:47:11;98304.72;;;18.45;63.74
34081;BME280;20358;50.272;19.026;2023-06-22T00:50:23;98408.97;;;19.03;64.06
34081;BME280;20358;50.272;19.026;2023-06-22T00:53:37;98356.72;;;18.50;64.22
34081;BME280;20358;50.272;19.026;2023-06-22T00:56:44;98407.44;;;18.92;64.29
34081;BME280;20358;50.272;19.026;2023-06-22T00:59:53;98383.69;;;18.73;64.71
34081;BME280;20358;50.272;19.026;2023-06-22T01:03:02;98410.28;;;18.82;64.26
34081;BME280;20358;50.272;19.026;2023-06-22T01:06:20;98416.81;;;18.80;65.02
34081;BME280;20358;50.272;19.026;2023-06-22T01:09:50;98410.25;;;18.66;64.94
34081;BME280;20358;50.272;19.026;2023-06-22T01:13:16;98417.94;;;18.61;64.77
34081;BME280;20358;50.272;19.026;2023-06-22T01:16:33;98407.56;;;18.58;64.82
34081;BME280;20358;50.272;19.026;2023-06-22T01:19:45;98402.19;;;18.58;65.10
34081;BME280;20358;50.272;19.026;2023-06-22T01:23:09;98345.94;;;18.18;65.00
34081;BME280;20358;50.272;19.026;2023-06-22T01:26:37;98384.38;;;18.25;65.00
34081;BME280;20358;50.272;19.026;2023-06-22T01:29:55;98368.59;;;18.06;65.64
34081;BME280;20358;50.272;19.026;2023-06-22T01:33:10;98410.44;;;18.23;66.14
34081;BME280;20358;50.272;19.026;2023-06-22T01:36:22;98406.38;;;18.19;65.99
34081;BME280;20358;50.272;19.026;2023-06-22T01:39:31;98411.38;;;18.14;66.32
34081;BME280;20358;50.272;19.026;2023-06-22T01:42:41;98360.47;;;17.82;66.60
34081;BME280;20358;50.272;19.026;2023-06-22T01:45:54;98411.72;;;18.19;66.58
34081;BME280;20358;50.272;19.026;2023-06-22T01:49:04;98417.75;;;18.13;66.21
34081;BME280;20358;50.272;19.026;2023-06-22T01:52:14;98417.06;;;18.11;66.77
34081;BME280;20358;50.272;19.026;2023-06-22T01:55:22;98414.06;;;18.14;66.13
34081;BME280;20358;50.272;19.026;2023-06-22T01:58:31;98417.06;;;18.11;66.64
34081;BME280;20358;50.272;19.026;2023-06-22T02:01:54;98421.56;;;18.10;66.05
34081;BME280;20358;50.272;19.026;2023-06-22T02:05:10;98406.66;;;18.00;66.57
34081;BME280;20358;50.272;19.026;2023-06-22T02:08:29;98428.44;;;18.13;66.00
34081;BME280;20358;50.272;19.026;2023-06-22T02:11:46;98403.97;;;18.00;65.96
34081;BME280;20358;50.272;19.026;2023-06-22T02:14:56;98405.50;;;18.02;66.07
34081;BME280;20358;50.272;19.026;2023-06-22T02:18:07;98428.63;;;18.19;66.13
34081;BME280;20358;50.272;19.026;2023-06-22T02:21:16;98433.47;;;18.24;65.76
34081;BME280;20358;50.272;19.026;2023-06-22T02:24:23;98431.81;;;18.23;65.63
34081;BME280;20358;50.272;19.026;2023-06-22T02:27:31;98435.97;;;18.17;65.85
34081;BME280;20358;50.272;19.026;2023-06-22T02:30:38;98420.06;;;18.08;66.18
34081;BME280;20358;50.272;19.026;2023-06-22T02:33:48;98437.44;;;18.12;66.06
34081;BME280;20358;50.272;19.026;2023-06-22T02:36:59;98362.50;;;17.62;66.55
34081;BME280;20358;50.272;19.026;2023-06-22T02:40:09;98442.44;;;18.07;65.97
34081;BME280;20358;50.272;19.026;2023-06-22T02:43:17;98445.72;;;18.01;66.26
34081;BME280;20358;50.272;19.026;2023-06-22T02:46:25;98449.72;;;17.97;66.41
34081;BME280;20358;50.272;19.026;2023-06-22T02:49:35;98458.31;;;17.83;66.98
34081;BME280;20358;50.272;19.026;2023-06-22T02:52:50;98455.88;;;17.71;67.10
34081;BME280;20358;50.272;19.026;2023-06-22T02:56:00;98419.66;;;17.43;68.00
34081;BME280;20358;50.272;19.026;2023-06-22T02:59:14;98458.81;;;17.60;68.04
34081;BME280;20358;50.272;19.026;2023-06-22T03:02:21;98441.44;;;17.39;68.31
34081;BME280;20358;50.272;19.026;2023-06-22T03:05:33;98445.44;;;17.35;68.65
34081;BME280;20358;50.272;19.026;2023-06-22T03:08:40;98474.94;;;17.51;68.40
34081;BME280;20358;50.272;19.026;2023-06-22T03:11:48;98485.28;;;17.54;68.51
34081;BME280;20358;50.272;19.026;2023-06-22T03:14:57;98485.22;;;17.63;68.06
34081;BME280;20358;50.272;19.026;2023-06-22T03:18:05;98486.56;;;17.67;68.51
34081;BME280;20358;50.272;19.026;2023-06-22T03:21:17;98484.56;;;17.69;67.82
34081;BME280;20358;50.272;19.026;2023-06-22T03:24:26;98466.16;;;17.58;68.07
34081;BME280;20358;50.272;19.026;2023-06-22T03:27:33;98482.91;;;17.68;67.93
34081;BME280;20358;50.272;19.026;2023-06-22T03:30:43;98500.53;;;17.79;68.13
34081;BME280;20358;50.272;19.026;2023-06-22T03:33:51;98476.41;;;17.71;67.63
34081;BME280;20358;50.272;19.026;2023-06-22T03:37:03;98475.88;;;17.67;67.31
34081;BME280;20358;50.272;19.026;2023-06-22T03:40:11;98490.44;;;17.73;67.92
34081;BME280;20358;50.272;19.026;2023-06-22T03:43:19;98504.75;;;17.82;67.89
34081;BME280;20358;50.272;19.026;2023-06-22T03:46:26;98477.34;;;17.62;68.01
34081;BME280;20358;50.272;19.026;2023-06-22T03:49:36;98498.63;;;17.71;67.70
34081;BME280;20358;50.272;19.026;2023-06-22T03:52:45;98495.25;;;17.69;67.95
34081;BME280;20358;50.272;19.026;2023-06-22T03:55:56;98432.56;;;17.30;68.53
34081;BME280;20358;50.272;19.026;2023-06-22T03:59:07;98488.25;;;17.68;68.72
34081;BME280;20358;50.272;19.026;2023-06-22T04:02:19;98490.25;;;17.66;68.27
34081;BME280;20358;50.272;19.026;2023-06-22T04:05:26;98506.47;;;17.73;68.37
34081;BME280;20358;50.272;19.026;2023-06-22T04:08:37;98484.84;;;17.58;68.61
34081;BME280;20358;50.272;19.026;2023-06-22T04:11:44;98496.06;;;17.80;68.87
34081;BME280;20358;50.272;19.026;2023-06-22T04:15:04;98321.69;;;16.75;68.63
34081;BME280;20358;50.272;19.026;2023-06-22T04:18:50;98327.66;;;16.94;68.76
34081;BME280;20358;50.272;19.026;2023-06-22T04:21:58;98473.94;;;17.77;69.29
34081;BME280;20358;50.272;19.026;2023-06-22T04:25:08;98474.28;;;17.74;69.25
34081;BME280;20358;50.272;19.026;2023-06-22T04:28:16;98511.19;;;17.97;69.06
34081;BME280;20358;50.272;19.026;2023-06-22T04:31:23;98520.22;;;18.04;69.35
34081;BME280;20358;50.272;19.026;2023-06-22T04:34:36;98515.31;;;18.17;68.65
34081;BME280;20358;50.272;19.026;2023-06-22T04:37:44;98517.41;;;18.31;68.39
34081;BME280;20358;50.272;19.026;2023-06-22T04:41:09;98408.50;;;17.73;69.12
34081;BME280;20358;50.272;19.026;2023-06-22T04:44:21;98511.00;;;18.58;68.82
34081;BME280;20358;50.272;19.026;2023-06-22T04:47:37;98480.78;;;18.57;68.73
34081;BME280;20358;50.272;19.026;2023-06-22T04:50:45;98418.00;;;18.35;68.06
34081;BME280;20358;50.272;19.026;2023-06-22T04:53:53;98511.44;;;18.79;68.62
34081;BME280;20358;50.272;19.026;2023-06-22T04:57:10;98531.63;;;18.73;69.17
34081;BME280;20358;50.272;19.026;2023-06-22T05:00:25;98536.84;;;18.75;68.84
34081;BME280;20358;50.272;19.026;2023-06-22T05:03:34;98534.19;;;18.83;68.62
34081;BME280;20358;50.272;19.026;2023-06-22T05:06:49;98511.25;;;18.72;68.76
34081;BME280;20358;50.272;19.026;2023-06-22T05:09:59;98537.59;;;19.01;68.41
34081;BME280;20358;50.272;19.026;2023-06-22T05:13:11;98530.59;;;19.08;67.54
34081;BME280;20358;50.272;19.026;2023-06-22T05:16:21;98540.03;;;19.28;67.48
34081;BME280;20358;50.272;19.026;2023-06-22T05:19:30;98547.25;;;19.44;67.18
34081;BME280;20358;50.272;19.026;2023-06-22T05:22:41;98550.44;;;19.47;66.98
34081;BME280;20358;50.272;19.026;2023-06-22T05:25:53;98552.78;;;19.58;66.23
34081;BME280;20358;50.272;19.026;2023-06-22T05:30:12;98555.31;;;19.68;65.92
34081;BME280;20358;50.272;19.026;2023-06-22T05:34:12;98320.78;;;18.45;65.87
34081;BME280;20358;50.272;19.026;2023-06-22T05:38:26;98161.75;;;17.66;64.59
34081;BME280;20358;50.272;19.026;2023-06-22T05:42:19;98354.44;;;19.04;64.33
34081;BME280;20358;50.272;19.026;2023-06-22T05:46:14;98564.28;;;20.56;63.57
34081;BME280;20358;50.272;19.026;2023-06-22T05:49:48;98555.53;;;20.70;63.13
34081;BME280;20358;50.272;19.026;2023-06-22T05:53:16;98477.13;;;20.52;62.28
34081;BME280;20358;50.272;19.026;2023-06-22T05:56:26;98555.78;;;21.22;61.64
34081;BME280;20358;50.272;19.026;2023-06-22T05:59:38;98555.09;;;21.51;60.96
34081;BME280;20358;50.272;19.026;2023-06-22T06:02:51;98562.38;;;21.65;59.46
34081;BME280;20358;50.272;19.026;2023-06-22T06:06:12;98567.66;;;21.81;58.49
34081;BME280;20358;50.272;19.026;2023-06-22T06:09:27;98565.84;;;21.96;58.50
34081;BME280;20358;50.272;19.026;2023-06-22T06:12:43;98570.34;;;22.18;57.65
34081;BME280;20358;50.272;19.026;2023-06-22T06:15:57;98576.66;;;22.25;56.82
34081;BME280;20358;50.272;19.026;2023-06-22T06:19:15;98575.06;;;22.16;57.24
34081;BME280;20358;50.272;19.026;2023-06-22T06:22:25;98574.59;;;22.13;56.97
34081;BME280;20358;50.272;19.026;2023-06-22T06:25:34;98579.53;;;22.24;56.69
34081;BME280;20358;50.272;19.026;2023-06-22T06:28:47;98600.66;;;22.12;56.89
34081;BME280;20358;50.272;19.026;2023-06-22T06:31:56;98596.84;;;22.07;57.52
34081;BME280;20358;50.272;19.026;2023-06-22T06:35:09;98589.69;;;21.99;57.00
34081;BME280;20358;50.272;19.026;2023-06-22T06:38:23;98591.16;;;22.02;57.25
34081;BME280;20358;50.272;19.026;2023-06-22T06:41:32;98590.41;;;21.93;57.02
34081;BME280;20358;50.272;19.026;2023-06-22T06:44:40;98583.81;;;21.95;56.87
34081;BME280;20358;50.272;19.026;2023-06-22T06:47:54;98582.22;;;21.86;55.64
34081;BME280;20358;50.272;19.026;2023-06-22T06:51:06;98556.78;;;21.74;56.18
34081;BME280;20358;50.272;19.026;2023-06-22T06:54:25;98583.53;;;21.90;55.43
34081;BME280;20358;50.272;19.026;2023-06-22T06:57:33;98563.50;;;21.93;55.13
34081;BME280;20358;50.272;19.026;2023-06-22T07:00:43;98572.44;;;22.08;55.41
34081;BME280;20358;50.272;19.026;2023-06-22T07:03:53;98573.31;;;22.23;55.56
34081;BME280;20358;50.272;19.026;2023-06-22T07:07:11;98572.72;;;22.36;55.05
34081;BME280;20358;50.272;19.026;2023-06-22T07:10:23;98575.22;;;22.37;55.12
34081;BME280;20358;50.272;19.026;2023-06-22T07:13:36;98577.47;;;22.48;55.21
34081;BME280;20358;50.272;19.026;2023-06-22T07:16:43;98576.06;;;22.52;55.01
34081;BME280;20358;50.272;19.026;2023-06-22T07:19:52;98571.50;;;22.68;53.85
34081;BME280;20358;50.272;19.026;2023-06-22T07:23:02;98581.16;;;22.77;53.51
34081;BME280;20358;50.272;19.026;2023-06-22T07:26:14;98591.22;;;22.83;52.90
34081;BME280;20358;50.272;19.026;2023-06-22T07:29:31;98593.97;;;22.89;52.05
34081;BME280;20358;50.272;19.026;2023-06-22T07:32:50;98587.25;;;22.93;50.80
34081;BME280;20358;50.272;19.026;2023-06-22T07:35:58;98592.63;;;22.93;50.10
34081;BME280;20358;50.272;19.026;2023-06-22T07:39:15;98573.75;;;22.79;50.93
34081;BME280;20358;50.272;19.026;2023-06-22T07:42:22;98605.16;;;23.01;50.32
34081;BME280;20358;50.272;19.026;2023-06-22T07:45:30;98601.25;;;23.03;49.98
34081;BME280;20358;50.272;19.026;2023-06-22T07:48:39;98598.34;;;23.05;50.14
34081;BME280;20358;50.272;19.026;2023-06-22T07:52:00;98601.41;;;23.02;49.59
34081;BME280;20358;50.272;19.026;2023-06-22T07:55:13;98607.00;;;23.00;50.15
34081;BME280;20358;50.272;19.026;2023-06-22T07:58:29;98607.91;;;23.07;49.79
34081;BME280;20358;50.272;19.026;2023-06-22T08:01:43;98602.72;;;23.06;49.06
34081;BME280;20358;50.272;19.026;2023-06-22T08:05:06;98596.97;;;23.09;48.47
34081;BME280;20358;50.272;19.026;2023-06-22T08:08:22;98596.66;;;23.18;48.35
34081;BME280;20358;50.272;19.026;2023-06-22T08:11:36;98605.91;;;23.31;48.69
34081;BME280;20358;50.272;19.026;2023-06-22T08:14:44;98612.69;;;23.41;48.02
34081;BME280;20358;50.272;19.026;2023-06-22T08:17:52;98611.47;;;23.44;47.94
34081;BME280;20358;50.272;19.026;2023-06-22T08:21:00;98616.69;;;23.45;47.10
34081;BME280;20358;50.272;19.026;2023-06-22T08:24:11;98627.75;;;23.50;46.65
34081;BME280;20358;50.272;19.026;2023-06-22T08:27:23;98619.66;;;23.50;46.58
34081;BME280;20358;50.272;19.026;2023-06-22T08:30:32;98628.28;;;23.60;46.93
34081;BME280;20358;50.272;19.026;2023-06-22T08:33:41;98619.09;;;23.40;46.60
34081;BME280;20358;50.272;19.026;2023-06-22T08:36:53;98611.63;;;23.21;46.46
34081;BME280;20358;50.272;19.026;2023-06-22T08:40:10;98637.69;;;23.35;47.44
34081;BME280;20358;50.272;19.026;2023-06-22T08:43:21;98603.69;;;23.19;46.91
34081;BME280;20358;50.272;19.026;2023-06-22T08:46:36;98639.00;;;23.39;47.63
34081;BME280;20358;50.272;19.026;2023-06-22T08:49:45;98630.91;;;23.39;46.56
34081;BME280;20358;50.272;19.026;2023-06-22T08:52:51;98632.97;;;23.37;47.01
34081;BME280;20358;50.272;19.026;2023-06-22T08:56:02;98641.16;;;23.29;46.77
34081;BME280;20358;50.272;19.026;2023-06-22T08:59:14;98643.38;;;23.26;47.23
34081;BME280;20358;50.272;19.026;2023-06-22T09:02:24;98636.66;;;23.36;47.09
34081;BME280;20358;50.272;19.026;2023-06-22T09:05:37;98604.81;;;23.25;46.98
34081;BME280;20358;50.272;19.026;2023-06-22T09:08:45;98636.84;;;23.49;46.68
34081;BME280;20358;50.272;19.026;2023-06-22T09:11:54;98627.56;;;23.37;46.75
34081;BME280;20358;50.272;19.026;2023-06-22T09:15:11;98608.72;;;23.22;46.34
34081;BME280;20358;50.272;19.026;2023-06-22T09:18:30;98635.53;;;23.45;45.32
34081;BME280;20358;50.272;19.026;2023-06-22T09:21:40;98629.78;;;23.48;45.03
34081;BME280;20358;50.272;19.026;2023-06-22T09:24:58;98631.47;;;23.49;45.86
34081;BME280;20358;50.272;19.026;2023-06-22T09:28:17;98620.69;;;23.49;46.22
34081;BME280;20358;50.272;19.026;2023-06-22T09:31:33;98611.06;;;23.61;45.70
34081;BME280;20358;50.272;19.026;2023-06-22T09:34:43;98605.03;;;23.59;45.73
34081;BME280;20358;50.272;19.026;2023-06-22T09:37:50;98601.53;;;23.44;45.53
34081;BME280;20358;50.272;19.026;2023-06-22T09:41:00;98599.69;;;23.30;45.38
34081;BME280;20358;50.272;19.026;2023-06-22T09:44:08;98610.47;;;23.30;46.10
34081;BME280;20358;50.272;19.026;2023-06-22T09:47:26;98598.88;;;23.30;45.03
34081;BME280;20358;50.272;19.026;2023-06-22T09:50:34;98596.88;;;23.38;46.00
34081;BME280;20358;50.272;19.026;2023-06-22T09:53:42;98590.44;;;23.54;45.18
34081;BME280;20358;50.272;19.026;2023-06-22T09:56:51;98593.13;;;23.68;44.75
34081;BME280;20358;50.272;19.026;2023-06-22T10:00:03;98596.44;;;23.70;44.55
34081;BME280;20358;50.272;19.026;2023-06-22T10:03:17;98577.75;;;23.69;44.87
34081;BME280;20358;50.272;19.026;2023-06-22T10:06:28;98595.72;;;23.83;45.45
34081;BME280;20358;50.272;19.026;2023-06-22T10:09:38;98585.84;;;23.90;45.58
34081;BME280;20358;50.272;19.026;2023-06-22T10:13:02;98566.78;;;23.92;44.73
34081;BME280;20358;50.272;19.026;2023-06-22T10:16:15;98562.34;;;24.05;44.33
34081;BME280;20358;50.272;19.026;2023-06-22T10:19:25;98561.88;;;24.23;44.30
34081;BME280;20358;50.272;19.026;2023-06-22T10:22:37;98580.78;;;24.29;43.39
34081;BME280;20358;50.272;19.026;2023-06-22T10:25:49;98578.34;;;24.34;43.51
34081;BME280;20358;50.272;19.026;2023-06-22T10:28:59;98565.09;;;24.39;43.50
34081;BME280;20358;50.272;19.026;2023-06-22T10:32:10;98576.31;;;24.43;42.59
34081;BME280;20358;50.272;19.026;2023-06-22T10:35:23;98570.13;;;24.49;42.50
34081;BME280;20358;50.272;19.026;2023-06-22T10:38:34;98571.00;;;24.56;42.68
34081;BME280;20358;50.272;19.026;2023-06-22T10:41:49;98578.50;;;24.54;42.27
34081;BME280;20358;50.272;19.026;2023-06-22T10:45:05;98578.50;;;24.54;42.45
34081;BME280;20358;50.272;19.026;2023-06-22T10:48:14;98566.84;;;24.54;42.99
34081;BME280;20358;50.272;19.026;2023-06-22T10:51:26;98566.88;;;24.60;43.38
34081;BME280;20358;50.272;19.026;2023-06-22T10:54:38;98567.81;;;24.74;42.54
34081;BME280;20358;50.272;19.026;2023-06-22T10:57:49;98561.25;;;24.89;43.00
34081;BME280;20358;50.272;19.026;2023-06-22T11:01:01;98562.09;;;24.96;42.19
34081;BME280;20358;50.272;19.026;2023-06-22T11:04:35;98557.59;;;25.04;42.39
34081;BME280;20358;50.272;19.026;2023-06-22T11:07:46;98534.69;;;24.99;42.63
34081;BME280;20358;50.272;19.026;2023-06-22T11:10:55;98560.59;;;25.22;42.54
34081;BME280;20358;50.272;19.026;2023-06-22T11:14:04;98522.88;;;25.07;42.48
34081;BME280;20358;50.272;19.026;2023-06-22T11:17:14;98553.31;;;25.29;41.81
34081;BME280;20358;50.272;19.026;2023-06-22T11:20:24;98558.56;;;25.37;42.17
34081;BME280;20358;50.272;19.026;2023-06-22T11:23:39;98568.72;;;25.28;39.25
34081;BME280;20358;50.272;19.026;2023-06-22T11:26:52;98556.44;;;25.26;39.56
34081;BME280;20358;50.272;19.026;2023-06-22T11:30:05;98544.38;;;25.35;39.94
34081;BME280;20358;50.272;19.026;2023-06-22T11:33:13;98544.84;;;25.45;39.58
34081;BME280;20358;50.272;19.026;2023-06-22T11:36:23;98538.56;;;25.38;38.88
34081;BME280;20358;50.272;19.026;2023-06-22T11:39:35;98539.41;;;25.32;38.92
34081;BME280;20358;50.272;19.026;2023-06-22T11:42:59;98535.06;;;25.44;38.51
34081;BME280;20358;50.272;19.026;2023-06-22T11:46:10;98528.84;;;25.56;38.83
34081;BME280;20358;50.272;19.026;2023-06-22T11:49:19;98506.16;;;25.64;40.23
34081;BME280;20358;50.272;19.026;2023-06-22T11:52:31;98535.75;;;25.98;39.73
34081;BME280;20358;50.272;19.026;2023-06-22T11:55:52;98520.75;;;26.15;39.50
34081;BME280;20358;50.272;19.026;2023-06-22T11:59:00;98521.41;;;26.31;39.27
34081;BME280;20358;50.272;19.026;2023-06-22T12:02:15;98503.44;;;26.43;39.27
34081;BME280;20358;50.272;19.026;2023-06-22T12:05:32;98473.25;;;26.46;39.46
34081;BME280;20358;50.272;19.026;2023-06-22T12:08:46;98503.19;;;26.64;38.62
34081;BME280;20358;50.272;19.026;2023-06-22T12:11:57;98470.75;;;26.38;38.25
34081;BME280;20358;50.272;19.026;2023-06-22T12:15:06;98505.94;;;26.51;38.31
34081;BME280;20358;50.272;19.026;2023-06-22T12:18:17;98501.13;;;26.53;38.00
34081;BME280;20358;50.272;19.026;2023-06-22T12:21:29;98452.47;;;26.33;38.41
34081;BME280;20358;50.272;19.026;2023-06-22T12:24:38;98493.97;;;26.78;38.48
34081;BME280;20358;50.272;19.026;2023-06-22T12:27:50;98483.50;;;26.88;37.75
34081;BME280;20358;50.272;19.026;2023-06-22T12:30:59;98490.59;;;26.89;36.96
34081;BME280;20358;50.272;19.026;2023-06-22T12:34:13;98487.66;;;26.97;37.06
34081;BME280;20358;50.272;19.026;2023-06-22T12:37:20;98483.00;;;27.04;37.69
34081;BME280;20358;50.272;19.026;2023-06-22T12:40:30;98474.09;;;26.97;37.97
34081;BME280;20358;50.272;19.026;2023-06-22T12:47:44;98468.16;;;27.13;37.74
34081;BME280;20358;50.272;19.026;2023-06-22T12:50:54;98454.44;;;27.08;37.81
34081;BME280;20358;50.272;19.026;2023-06-22T12:54:07;98455.91;;;27.04;37.69
34081;BME280;20358;50.272;19.026;2023-06-22T12:57:15;98455.38;;;27.20;37.50
34081;BME280;20358;50.272;19.026;2023-06-22T13:00:23;98460.03;;;27.13;36.70
34081;BME280;20358;50.272;19.026;2023-06-22T13:03:34;98447.09;;;27.15;37.34
34081;BME280;20358;50.272;19.026;2023-06-22T13:06:45;98444.94;;;27.24;37.17
34081;BME280;20358;50.272;19.026;2023-06-22T13:09:55;98454.78;;;27.18;37.52
34081;BME280;20358;50.272;19.026;2023-06-22T13:13:08;98445.38;;;27.21;37.86
34081;BME280;20358;50.272;19.026;2023-06-22T13:16:17;98442.22;;;27.30;37.71
34081;BME280;20358;50.272;19.026;2023-06-22T13:19:27;98447.09;;;27.47;37.63
34081;BME280;20358;50.272;19.026;2023-06-22T13:22:36;98434.91;;;27.56;36.79
34081;BME280;20358;50.272;19.026;2023-06-22T13:25:48;98439.63;;;27.67;36.96
34081;BME280;20358;50.272;19.026;2023-06-22T13:29:00;98430.81;;;27.78;37.30
34081;BME280;20358;50.272;19.026;2023-06-22T13:32:08;98432.00;;;27.82;36.55
34081;BME280;20358;50.272;19.026;2023-06-22T13:35:20;98424.56;;;27.71;36.58
34081;BME280;20358;50.272;19.026;2023-06-22T13:38:27;98424.56;;;27.71;37.32
34081;BME280;20358;50.272;19.026;2023-06-22T13:41:36;98425.50;;;27.58;36.69
34081;BME280;20358;50.272;19.026;2023-06-22T13:44:49;98421.34;;;27.56;37.09
34081;BME280;20358;50.272;19.026;2023-06-22T13:47:58;98421.34;;;27.56;36.41
34081;BME280;20358;50.272;19.026;2023-06-22T13:51:13;98426.41;;;27.52;36.26
34081;BME280;20358;50.272;19.026;2023-06-22T13:54:23;98434.59;;;27.46;36.41
34081;BME280;20358;50.272;19.026;2023-06-22T13:57:33;98418.91;;;27.48;36.20
34081;BME280;20358;50.272;19.026;2023-06-22T14:00:44;98417.97;;;27.35;36.31
34081;BME280;20358;50.272;19.026;2023-06-22T14:03:58;98415.06;;;27.37;35.64
34081;BME280;20358;50.272;19.026;2023-06-22T14:07:16;98394.41;;;27.36;35.25
34081;BME280;20358;50.272;19.026;2023-06-22T14:10:24;98411.78;;;27.53;35.60
34081;BME280;20358;50.272;19.026;2023-06-22T14:13:33;98390.03;;;27.60;35.96
34081;BME280;20358;50.272;19.026;2023-06-22T14:16:42;98399.44;;;27.82;35.91
34081;BME280;20358;50.272;19.026;2023-06-22T14:19:54;98395.09;;;27.81;35.47
34081;BME280;20358;50.272;19.026;2023-06-22T14:23:05;98410.59;;;27.92;35.38
34081;BME280;20358;50.272;19.026;2023-06-22T14:26:14;98407.28;;;27.90;35.48
34081;BME280;20358;50.272;19.026;2023-06-22T14:29:26;98403.09;;;27.94;36.02
34081;BME280;20358;50.272;19.026;2023-06-22T14:32:34;98409.94;;;27.96;35.63
34081;BME280;20358;50.272;19.026;2023-06-22T14:35:42;98369.84;;;27.74;35.59
34081;BME280;20358;50.272;19.026;2023-06-22T14:38:54;98407.59;;;28.00;35.65
34081;BME280;20358;50.272;19.026;2023-06-22T14:42:08;98406.25;;;28.09;35.59
34081;BME280;20358;50.272;19.026;2023-06-22T14:45:20;98401.13;;;28.19;35.10
34081;BME280;20358;50.272;19.026;2023-06-22T14:48:30;98405.59;;;28.32;35.30
34081;BME280;20358;50.272;19.026;2023-06-22T14:51:43;98400.41;;;28.48;34.78
34081;BME280;20358;50.272;19.026;2023-06-22T14:54:53;98398.41;;;28.55;34.71
34081;BME280;20358;50.272;19.026;2023-06-22T14:58:01;98380.00;;;28.57;34.14
34081;BME280;20358;50.272;19.026;2023-06-22T15:01:07;98385.28;;;29.12;34.26
34081;BME280;20358;50.272;19.026;2023-06-22T15:04:18;98387.75;;;29.66;32.75
34081;BME280;20358;50.272;19.026;2023-06-22T15:07:29;98376.31;;;30.22;32.54
34081;BME280;20358;50.272;19.026;2023-06-22T15:10:40;98385.97;;;30.81;31.28
34081;BME280;20358;50.272;19.026;2023-06-22T15:13:50;98375.16;;;31.31;30.66
34081;BME280;20358;50.272;19.026;2023-06-22T15:16:59;98365.44;;;31.90;31.38
34081;BME280;20358;50.272;19.026;2023-06-22T15:20:12;98380.97;;;32.45;29.10
34081;BME280;20358;50.272;19.026;2023-06-22T15:23:25;98360.34;;;32.59;29.25
34081;BME280;20358;50.272;19.026;2023-06-22T15:26:39;98375.38;;;32.83;28.65
34081;BME280;20358;50.272;19.026;2023-06-22T15:29:48;98375.03;;;33.01;28.70
34081;BME280;20358;50.272;19.026;2023-06-22T15:32:59;98382.69;;;32.99;28.64
34081;BME280;20358;50.272;19.026;2023-06-22T15:36:10;98358.72;;;33.11;28.69
34081;BME280;20358;50.272;19.026;2023-06-22T15:39:23;98373.25;;;33.44;28.44
34081;BME280;20358;50.272;19.026;2023-06-22T15:42:35;98374.72;;;33.24;28.09
34081;BME280;20358;50.272;19.026;2023-06-22T15:45:48;98380.00;;;33.04;27.88
34081;BME280;20358;50.272;19.026;2023-06-22T15:48:57;98379.91;;;32.94;28.39
34081;BME280;20358;50.272;19.026;2023-06-22T15:52:05;98374.53;;;33.04;28.27
34081;BME280;20358;50.272;19.026;2023-06-22T15:55:14;98365.53;;;33.35;28.12
34081;BME280;20358;50.272;19.026;2023-06-22T15:58:27;98352.34;;;33.64;27.96
34081;BME280;20358;50.272;19.026;2023-06-22T16:01:36;98362.66;;;33.94;27.06
34081;BME280;20358;50.272;19.026;2023-06-22T16:04:49;98356.16;;;34.05;26.89
34081;BME280;20358;50.272;19.026;2023-06-22T16:07:58;98338.03;;;33.99;26.82
34081;BME280;20358;50.272;19.026;2023-06-22T16:11:07;98341.63;;;34.05;26.76
34081;BME280;20358;50.272;19.026;2023-06-22T16:14:18;98351.53;;;34.11;26.99
34081;BME280;20358;50.272;19.026;2023-06-22T16:17:26;98350.69;;;34.10;26.85
34081;BME280;20358;50.272;19.026;2023-06-22T16:20:38;98344.25;;;34.36;26.59
34081;BME280;20358;50.272;19.026;2023-06-22T16:23:49;98352.00;;;34.54;26.76
34081;BME280;20358;50.272;19.026;2023-06-22T16:26:58;98344.94;;;34.69;26.70
34081;BME280;20358;50.272;19.026;2023-06-22T16:30:15;98329.59;;;34.78;26.66
34081;BME280;20358;50.272;19.026;2023-06-22T16:33:24;98331.13;;;34.48;26.08
34081;BME280;20358;50.272;19.026;2023-06-22T16:36:34;98342.59;;;34.35;26.27
34081;BME280;20358;50.272;19.026;2023-06-22T16:39:46;98331.03;;;34.18;26.98
34081;BME280;20358;50.272;19.026;2023-06-22T16:42:54;98337.09;;;34.30;26.95
34081;BME280;20358;50.272;19.026;2023-06-22T16:46:11;98317.28;;;34.13;26.64
34081;BME280;20358;50.272;19.026;2023-06-22T16:49:19;98310.66;;;34.09;26.65
34081;BME280;20358;50.272;19.026;2023-06-22T16:52:27;98329.97;;;34.24;26.64